Time;durP1;ratioP1;P1;durP2;ratioP2;P2;SDS_P1;SDS_P2;PMS_P1;PMS_P2;Temp;Humidity;BMP_temperature;BMP_pressure;BME280_temperature;BME280_humidity;BME280_pressure;Samples;Min_cycle;Max_cycle;Signal;HPM_P1;HPM_P2
2022/05/09 00:01:42;;;;;;;11.40;5.30;;;6.70;99.90;;;;;;5113496;28;20222;-82
2022/05/09 00:04:10;;;;;;;9.83;5.73;;;6.80;99.90;;;;;;5113482;28;20269;-82
2022/05/09 00:06:37;;;;;;;9.17;5.70;;;6.80;99.90;;;;;;5113551;28;20308;-81
2022/05/09 00:09:04;;;;;;;10.30;5.50;;;6.90;99.90;;;;;;5113314;28;20233;-82
2022/05/09 00:11:31;;;;;;;10.40;5.20;;;6.90;99.90;;;;;;5112987;28;20244;-81
2022/05/09 00:13:58;;;;;;;7.80;5.47;;;6.90;99.90;;;;;;5113025;28;20266;-82
2022/05/09 00:16:27;;;;;;;10.77;5.30;;;6.90;99.90;;;;;;5112925;28;20638;-80
2022/05/09 00:18:54;;;;;;;10.63;5.40;;;6.90;99.90;;;;;;5113219;28;20198;-82
2022/05/09 00:21:22;;;;;;;12.93;6.17;;;6.80;99.90;;;;;;5112810;28;20730;-81
2022/05/09 00:23:49;;;;;;;8.37;5.40;;;6.80;99.90;;;;;;5112612;28;20214;-81
2022/05/09 00:26:16;;;;;;;11.87;5.47;;;6.80;99.90;;;;;;5113117;28;20197;-82
2022/05/09 00:28:44;;;;;;;9.70;5.43;;;6.70;99.90;;;;;;5112785;28;20190;-83
2022/05/09 00:31:11;;;;;;;7.83;4.60;;;6.70;64.90;;;;;;5113490;28;20218;-82
2022/05/09 00:33:38;;;;;;;10.67;5.13;;;6.60;1.10;;;;;;5112440;28;20187;-81
2022/05/09 00:36:05;;;;;;;11.33;5.67;;;6.60;1.00;;;;;;5112974;28;20191;-82
2022/05/09 00:38:33;;;;;;;9.43;5.40;;;6.50;1.00;;;;;;5112986;28;20201;-82
2022/05/09 00:43:44;;;;;;;9.37;5.60;;;6.40;1.00;;;;;;5112531;28;20193;-83
2022/05/09 00:46:11;;;;;;;9.37;6.23;;;6.30;1.00;;;;;;5113136;28;20220;-82
2022/05/09 00:48:38;;;;;;;9.80;6.40;;;6.40;69.00;;;;;;5112722;28;20253;-82
2022/05/09 00:51:08;;;;;;;13.50;7.30;;;6.50;99.90;;;;;;5112100;28;20192;-81
2022/05/09 00:53:37;;;;;;;11.70;6.70;;;6.60;99.90;;;;;;5112530;28;20642;-81
2022/05/09 00:56:08;;;;;;;12.50;6.90;;;6.60;1.00;;;;;;5112798;28;20545;-82
2022/05/09 00:58:39;;;;;;;10.70;6.80;;;6.70;1.00;;;;;;5112854;28;20233;-82
2022/05/09 01:01:10;;;;;;;11.43;6.43;;;6.70;1.00;;;;;;5112678;28;20591;-82
2022/05/09 01:03:41;;;;;;;10.53;7.50;;;6.80;8.60;;;;;;5112823;28;20247;-82
2022/05/09 01:06:08;;;;;;;11.63;7.30;;;6.90;99.90;;;;;;5112780;28;20199;-81
2022/05/09 01:08:37;;;;;;;10.90;6.87;;;7.00;99.90;;;;;;5112475;28;20582;-82
2022/05/09 01:11:05;;;;;;;12.63;6.63;;;7.00;99.90;;;;;;5112626;28;20225;-80
2022/05/09 01:13:36;;;;;;;8.40;5.93;;;7.10;99.90;;;;;;5112598;28;20197;-81
2022/05/09 01:16:05;;;;;;;8.27;5.17;;;7.10;99.90;;;;;;5112651;28;20189;-81
2022/05/09 01:18:34;;;;;;;11.03;6.00;;;7.20;99.90;;;;;;5112273;28;20244;-81
2022/05/09 01:21:01;;;;;;;10.57;6.97;;;7.20;99.90;;;;;;5112199;28;20626;-82
2022/05/09 01:23:35;;;;;;;9.13;6.23;;;7.30;99.90;;;;;;5112664;28;20222;-83
2022/05/09 01:26:02;;;;;;;9.53;6.03;;;7.30;12.20;;;;;;5112251;28;20647;-83
2022/05/09 01:28:28;;;;;;;9.67;6.60;;;7.30;1.00;;;;;;5111835;28;20742;-82
2022/05/09 01:30:58;;;;;;;9.63;6.27;;;7.30;1.00;;;;;;5112516;28;20218;-82
2022/05/09 01:33:29;;;;;;;10.03;6.40;;;7.30;1.00;;;;;;5115840;28;20222;-81
2022/05/09 01:36:00;;;;;;;9.57;7.13;;;7.20;1.00;;;;;;5116016;28;20274;-80
2022/05/09 01:38:31;;;;;;;8.13;6.13;;;7.20;1.00;;;;;;5115777;28;20270;-81
2022/05/09 01:40:59;;;;;;;10.17;5.90;;;7.20;1.00;;;;;;5115615;28;20642;-81
2022/05/09 01:43:33;;;;;;;8.63;6.10;;;7.10;1.00;;;;;;5115839;28;20278;-81
2022/05/09 01:46:00;;;;;;;9.10;6.47;;;7.10;1.00;;;;;;5116105;28;20185;-82
2022/05/09 01:51:11;;;;;;;9.10;5.83;;;7.00;1.00;;;;;;5115665;28;20177;-81
2022/05/09 01:53:39;;;;;;;9.87;6.07;;;7.00;1.00;;;;;;5115830;28;20700;-82
2022/05/09 01:56:07;;;;;;;12.00;6.37;;;7.00;1.00;;;;;;5115538;28;20191;-81
2022/05/09 01:58:34;;;;;;;10.80;6.50;;;6.90;1.00;;;;;;5115724;28;20602;-82
2022/05/09 02:01:00;;;;;;;9.83;6.00;;;6.90;1.00;;;;;;5115874;28;20197;-81
2022/05/09 02:03:27;;;;;;;9.10;6.20;;;6.90;1.00;;;;;;5115746;28;20289;-83
2022/05/09 02:05:54;;;;;;;9.07;6.60;;;6.90;1.00;;;;;;5115589;28;20191;-82
2022/05/09 02:08:21;;;;;;;8.27;6.10;;;6.90;1.00;;;;;;5115596;28;20246;-81
2022/05/09 02:10:49;;;;;;;9.80;5.90;;;6.90;1.00;;;;;;5097684;28;20203;-81
2022/05/09 02:13:17;;;;;;;10.10;7.60;;;6.90;1.00;;;;;;5115878;28;20193;-82
2022/05/09 02:15:44;;;;;;;9.73;5.97;;;6.80;1.00;;;;;;5115294;28;20213;-83
2022/05/09 02:18:11;;;;;;;9.20;6.23;;;6.80;1.00;;;;;;5115177;28;20100;-81
2022/05/09 02:20:38;;;;;;;9.87;5.47;;;6.80;1.00;;;;;;5115465;28;20301;-82
2022/05/09 02:23:06;;;;;;;8.83;5.00;;;6.80;1.00;;;;;;5115485;28;20278;-81
2022/05/09 02:25:34;;;;;;;11.90;5.50;;;6.80;1.00;;;;;;5115145;28;20229;-81
2022/05/09 02:28:02;;;;;;;7.50;5.30;;;6.80;99.90;;;;;;5115306;28;20307;-82
2022/05/09 02:30:31;;;;;;;6.50;4.63;;;6.70;99.90;;;;;;5114892;28;20186;-81
2022/05/09 02:32:57;;;;;;;9.90;5.30;;;6.70;99.90;;;;;;5114891;28;20190;-82
2022/05/09 02:35:25;;;;;;;8.53;4.20;;;6.70;99.90;;;;;;5114705;28;20209;-80
2022/05/09 02:37:53;;;;;;;7.57;4.73;;;6.70;99.90;;;;;;5114991;28;20230;-82
2022/05/09 02:40:20;;;;;;;7.50;4.37;;;6.70;99.90;;;;;;5114909;28;20647;-81
2022/05/09 02:42:47;;;;;;;6.50;4.37;;;6.70;99.90;;;;;;5114733;28;20218;-82
2022/05/09 02:45:14;;;;;;;6.33;3.63;;;6.70;99.90;;;;;;5113610;28;20270;-81
2022/05/09 02:47:42;;;;;;;4.73;2.83;;;6.70;54.50;;;;;;5114881;28;20254;-82
2022/05/09 02:50:10;;;;;;;6.07;3.70;;;6.70;1.00;;;;;;5114924;28;20201;-81
2022/05/09 02:52:37;;;;;;;8.00;3.40;;;6.70;1.00;;;;;;5114846;28;20309;-81
2022/05/09 02:55:05;;;;;;;8.47;3.83;;;6.70;1.00;;;;;;5114510;28;20181;-80
2022/05/09 02:57:32;;;;;;;6.80;3.83;;;6.80;1.00;;;;;;5114338;28;20201;-80
2022/05/09 02:59:59;;;;;;;7.63;4.23;;;6.70;1.00;;;;;;5114096;28;20617;-82
2022/05/09 03:02:26;;;;;;;8.77;3.93;;;6.70;1.00;;;;;;5114180;28;20209;-81
2022/05/09 03:04:53;;;;;;;6.90;3.83;;;6.70;1.00;;;;;;5113875;28;20659;-82
2022/05/09 03:07:22;;;;;;;5.73;4.10;;;6.70;1.00;;;;;;5114327;28;20546;-81
2022/05/09 03:09:50;;;;;;;4.87;3.60;;;6.60;1.00;;;;;;5114638;28;20186;-81
2022/05/09 03:12:19;;;;;;;5.73;3.87;;;6.60;1.00;;;;;;5114207;28;20228;-82
2022/05/09 03:15:17;;;;;;;6.97;3.80;;;6.60;1.00;;;;;;5100560;28;20176;-83
2022/05/09 03:17:44;;;;;;;8.90;4.07;;;6.60;1.00;;;;;;5109277;28;20301;-80
2022/05/09 03:20:17;;;;;;;6.93;3.90;;;6.50;1.00;;;;;;5093808;28;20274;-81
2022/05/09 03:22:45;;;;;;;5.97;3.73;;;6.50;1.00;;;;;;5116091;28;20253;-83
2022/05/09 03:25:23;;;;;;;6.10;3.80;;;6.50;1.00;;;;;;5116913;28;20192;-84
2022/05/09 03:28:10;;;;;;;6.37;3.67;;;6.50;1.00;;;;;;5119286;28;20198;-83
2022/05/09 03:30:47;;;;;;;6.90;4.30;;;6.50;1.00;;;;;;5136758;28;20198;-84
2022/05/09 03:33:27;;;;;;;6.77;3.77;;;6.50;1.00;;;;;;5136574;28;20249;-83
2022/05/09 03:36:17;;;;;;;11.37;4.20;;;6.50;1.00;;;;;;5135932;28;20220;-80
2022/05/09 03:38:48;;;;;;;7.30;3.67;;;6.40;99.90;;;;;;5137221;28;20234;-84
2022/05/09 03:41:15;;;;;;;7.07;3.77;;;6.50;99.90;;;;;;5137182;28;20186;-81
2022/05/09 03:43:51;;;;;;;7.93;4.07;;;6.40;99.90;;;;;;5130048;28;20201;-81
2022/05/09 03:46:22;;;;;;;6.33;4.00;;;6.40;99.90;;;;;;5126520;28;20201;-84
2022/05/09 03:48:55;;;;;;;6.47;4.47;;;6.40;99.90;;;;;;5126115;28;20219;-82
2022/05/09 03:51:24;;;;;;;6.53;3.60;;;6.40;99.90;;;;;;5124584;28;20210;-82
2022/05/09 03:53:51;;;;;;;6.30;3.93;;;6.40;99.90;;;;;;5121673;28;20612;-81
2022/05/09 03:56:21;;;;;;;5.27;3.53;;;6.50;99.90;;;;;;5137168;28;20202;-84
2022/05/09 03:58:55;;;;;;;6.73;3.70;;;6.50;99.90;;;;;;5124154;28;20171;-82
2022/05/09 04:01:28;;;;;;;4.87;3.13;;;6.50;99.90;;;;;;5137548;28;20218;-82
2022/05/09 04:04:02;;;;;;;7.10;3.33;;;6.60;99.90;;;;;;5137680;28;20205;-81
2022/05/09 04:06:38;;;;;;;5.60;3.57;;;6.60;99.90;;;;;;5137222;28;20183;-86
2022/05/09 04:09:12;;;;;;;8.07;3.30;;;6.70;1.00;;;;;;5137020;28;20278;-82
2022/05/09 04:11:45;;;;;;;4.17;2.97;;;7.10;99.90;;;;;;5136840;28;20201;-84
2022/05/09 04:17:08;;;;;;;5.20;2.53;;;8.90;99.90;;;;;;5137232;28;20248;-85
2022/05/09 04:19:37;;;;;;;3.83;2.10;;;9.90;1.00;;;;;;5137017;28;20181;-83
2022/05/09 04:22:31;;;;;;;3.40;2.53;;;10.80;99.90;;;;;;5136734;28;20188;-85
2022/05/09 04:25:09;;;;;;;3.43;2.13;;;11.60;1.00;;;;;;5122979;28;20265;-81
2022/05/09 04:27:46;;;;;;;3.80;2.20;;;12.30;1.00;;;;;;5136693;28;20202;-85
2022/05/09 04:30:28;;;;;;;3.60;2.00;;;13.00;99.90;;;;;;5137208;28;20214;-83
2022/05/09 04:36:07;;;;;;;3.33;2.10;;;14.00;1.00;;;;;;5135114;28;20194;-83
2022/05/09 04:38:45;;;;;;;3.10;1.70;;;14.50;1.00;;;;;;5136110;28;20218;-83
2022/05/09 04:41:22;;;;;;;3.97;1.80;;;14.90;1.00;;;;;;5136855;28;20265;-85
2022/05/09 04:46:45;;;;;;;4.63;2.13;;;15.90;1.00;;;;;;5133835;28;20186;-81
2022/05/09 04:49:26;;;;;;;2.35;1.77;;;16.20;1.00;;;;;;5135657;28;20221;-85
2022/05/09 04:52:06;;;;;;;3.72;1.58;;;16.30;1.00;;;;;;5133949;28;20229;-82
2022/05/09 04:54:44;;;;;;;3.80;1.77;;;16.70;1.00;;;;;;5133685;28;20190;-83
2022/05/09 04:57:17;;;;;;;2.50;1.60;;;16.90;1.00;;;;;;5134696;28;20205;-84
2022/05/09 04:59:46;;;;;;;2.55;1.60;;;17.30;1.00;;;;;;5133431;28;20210;-83
2022/05/09 05:02:13;;;;;;;3.08;1.42;;;17.60;1.00;;;;;;5117165;28;20193;-84
2022/05/09 05:04:40;;;;;;;5.18;1.90;;;17.80;1.00;;;;;;5112266;28;20282;-84
2022/05/09 05:07:07;;;;;;;2.33;1.63;;;18.00;1.00;;;;;;5114120;28;20209;-84
2022/05/09 05:09:36;;;;;;;3.33;1.70;;;18.20;1.00;;;;;;5118969;28;20267;-84
2022/05/09 05:12:07;;;;;;;3.35;1.58;;;18.30;1.00;;;;;;5135470;28;20190;-87
2022/05/09 05:14:36;;;;;;;2.58;1.67;;;18.50;1.00;;;;;;5140178;27;20175;-85
2022/05/09 05:17:07;;;;;;;2.70;1.70;;;18.70;1.00;;;;;;5140071;28;20187;-86
2022/05/09 05:19:44;;;;;;;2.75;1.80;;;18.80;1.00;;;;;;5139559;28;20191;-87
2022/05/09 05:22:16;;;;;;;2.55;1.50;;;19.00;1.00;;;;;;5140269;28;20200;-88
2022/05/09 05:24:49;;;;;;;1.90;1.60;;;19.00;1.00;;;;;;5139376;28;20175;-86
2022/05/09 05:27:22;;;;;;;3.55;1.80;;;19.10;1.00;;;;;;5139265;28;20201;-83
2022/05/09 05:29:55;;;;;;;3.78;1.55;;;19.40;1.00;;;;;;5139053;28;20199;-85
2022/05/09 05:35:27;;;;;;;3.55;1.50;;;20.00;1.00;;;;;;5114212;28;20271;-88
2022/05/09 05:38:04;;;;;;;4.53;1.52;;;20.30;1.00;;;;;;5129000;28;20191;-85
2022/05/09 05:40:32;;;;;;;1.90;1.40;;;20.50;1.00;;;;;;5130591;27;20198;-84
2022/05/09 05:43:00;;;;;;;2.78;1.55;;;20.70;1.00;;;;;;5136071;27;20214;-85
2022/05/09 05:45:28;;;;;;;3.03;1.50;;;21.00;1.00;;;;;;5127673;27;20179;-81
2022/05/09 05:47:57;;;;;;;2.33;1.33;;;21.50;1.00;;;;;;5131037;27;20243;-87
2022/05/09 05:50:25;;;;;;;3.10;1.40;;;21.90;1.00;;;;;;5130771;27;20256;-85
2022/05/09 05:52:53;;;;;;;3.10;1.63;;;22.00;1.00;;;;;;5123430;27;20682;-83
2022/05/09 05:55:28;;;;;;;2.47;1.50;;;21.80;1.00;;;;;;5133045;28;20215;-86
2022/05/09 05:57:57;;;;;;;5.45;1.80;;;22.00;1.00;;;;;;5134944;28;20236;-82
2022/05/09 06:00:24;;;;;;;3.55;1.50;;;22.10;1.00;;;;;;5115849;28;21090;-81
2022/05/09 06:02:52;;;;;;;2.30;1.30;;;22.40;1.00;;;;;;5132159;28;20202;-86
2022/05/09 06:05:25;;;;;;;3.17;1.45;;;22.90;1.00;;;;;;5137297;28;20225;-85
2022/05/09 06:07:58;;;;;;;2.90;1.70;;;23.10;1.00;;;;;;5137997;28;20158;-85
2022/05/09 06:10:32;;;;;;;2.58;1.40;;;23.10;1.00;;;;;;5135640;28;20613;-87
2022/05/09 06:13:09;;;;;;;4.45;1.50;;;23.40;1.00;;;;;;5137622;28;20219;-86
2022/05/09 06:15:37;;;;;;;2.95;1.60;;;23.70;1.00;;;;;;5137392;28;20186;-84
2022/05/09 06:18:08;;;;;;;2.15;1.42;;;24.30;1.00;;;;;;5125959;27;20820;-82
2022/05/09 06:20:37;;;;;;;3.30;1.63;;;24.50;1.00;;;;;;5124415;27;20538;-86
2022/05/09 06:23:05;;;;;;;3.50;1.48;;;24.70;1.00;;;;;;5123375;27;20714;-81
2022/05/09 06:25:34;;;;;;;3.97;1.60;;;24.90;1.00;;;;;;5122073;27;20983;-84
2022/05/09 06:28:03;;;;;;;1.83;1.30;;;25.00;1.00;;;;;;5124722;27;20236;-83
2022/05/09 06:30:30;;;;;;;2.03;1.40;;;25.10;1.00;;;;;;5119457;27;20197;-83
2022/05/09 06:32:58;;;;;;;3.55;1.65;;;25.20;1.00;;;;;;5123862;27;20635;-84
2022/05/09 06:35:26;;;;;;;2.67;1.50;;;25.20;1.00;;;;;;5124283;27;20281;-81
2022/05/09 06:37:58;;;;;;;2.65;1.50;;;25.50;1.00;;;;;;5123727;27;20179;-82
2022/05/09 06:40:25;;;;;;;4.25;1.70;;;25.80;1.00;;;;;;5125902;27;20199;-81
2022/05/09 06:42:54;;;;;;;3.47;1.30;;;26.20;1.00;;;;;;5139743;27;20218;-85
2022/05/09 06:45:25;;;;;;;2.58;1.70;;;26.30;1.00;;;;;;5134450;28;20265;-83
2022/05/09 06:47:54;;;;;;;2.78;1.70;;;26.50;1.00;;;;;;5134461;28;20187;-85
2022/05/09 06:50:25;;;;;;;2.05;1.40;;;26.60;1.00;;;;;;5125186;28;20191;-84
2022/05/09 06:52:52;;;;;;;3.00;1.83;;;26.80;1.00;;;;;;5126814;28;20223;-86
2022/05/09 06:55:19;;;;;;;2.47;1.40;;;26.90;1.00;;;;;;5121876;28;20544;-84
2022/05/09 06:57:46;;;;;;;3.13;1.60;;;27.10;1.00;;;;;;5119951;28;20198;-85
2022/05/09 07:00:16;;;;;;;3.10;1.20;;;27.50;1.00;;;;;;5121629;28;20744;-86
2022/05/09 07:02:45;;;;;;;3.28;1.60;;;27.80;1.00;;;;;;5118676;28;20270;-85
2022/05/09 07:05:15;;;;;;;2.95;1.27;;;27.80;1.00;;;;;;5119970;28;20193;-86
2022/05/09 07:07:47;;;;;;;2.20;1.38;;;27.90;1.00;;;;;;5120619;28;20179;-88
2022/05/09 07:10:16;;;;;;;3.35;1.65;;;28.10;1.00;;;;;;5125638;28;20175;-87
2022/05/09 07:12:44;;;;;;;3.63;1.60;;;28.00;1.00;;;;;;5119856;28;20203;-87
2022/05/09 07:15:21;;;;;;;2.42;1.45;;;27.70;1.00;;;;;;5119368;28;20191;-84
2022/05/09 07:17:51;;;;;;;2.65;1.55;;;27.80;1.00;;;;;;5120592;28;20171;-88
2022/05/09 07:20:19;;;;;;;3.22;1.60;;;28.10;1.00;;;;;;5118146;28;20229;-84
2022/05/09 07:22:46;;;;;;;2.25;1.58;;;28.30;1.00;;;;;;5118812;28;20183;-83
2022/05/09 07:25:14;;;;;;;1.95;1.40;;;28.30;1.00;;;;;;5121355;28;20214;-86
2022/05/09 07:27:42;;;;;;;3.60;1.30;;;28.50;1.00;;;;;;5113849;28;20273;-80
2022/05/09 07:30:11;;;;;;;4.90;1.80;;;28.90;1.00;;;;;;5123959;28;20671;-82
2022/05/09 07:32:38;;;;;;;2.85;1.50;;;28.90;1.00;;;;;;5121106;27;20647;-86
2022/05/09 07:35:08;;;;;;;3.22;1.50;;;28.70;1.00;;;;;;5123276;27;20215;-84
2022/05/09 07:37:35;;;;;;;4.00;1.70;;;29.00;1.00;;;;;;5125917;27;20184;-83
2022/05/09 07:40:03;;;;;;;3.60;1.80;;;29.10;1.00;;;;;;5126006;27;20721;-83
2022/05/09 07:42:31;;;;;;;3.88;1.60;;;29.10;1.00;;;;;;5121972;27;20685;-87
2022/05/09 07:45:00;;;;;;;3.05;1.90;;;29.20;1.00;;;;;;5123348;27;20265;-84
2022/05/09 07:47:27;;;;;;;2.50;1.58;;;29.40;1.00;;;;;;5123400;27;20183;-87
2022/05/09 07:49:54;;;;;;;2.42;1.80;;;29.70;1.00;;;;;;5120396;28;20198;-85
2022/05/09 07:52:26;;;;;;;;;;;29.60;1.00;;;;;;5116324;28;20262;-87
2022/05/09 07:54:53;;;;;;;;;;;29.90;1.00;;;;;;5117057;28;19927;-84
2022/05/09 07:57:20;;;;;;;;;;;30.10;1.00;;;;;;5113622;28;19981;-83
2022/05/09 07:59:46;;;;;;;;;;;29.70;1.00;;;;;;5118441;28;19970;-85
2022/05/09 08:02:14;;;;;;;;;;;29.10;1.00;;;;;;5125609;28;19923;-88
2022/05/09 08:04:41;;;;;;;;;;;28.70;1.00;;;;;;5119169;28;19928;-86
2022/05/09 08:07:08;;;;;;;;;;;28.80;1.00;;;;;;5118894;28;19972;-84
2022/05/09 08:09:37;;;;;;;;;;;28.60;1.00;;;;;;5115635;28;20440;-86
2022/05/09 08:12:09;;;;;;;;;;;28.30;1.00;;;;;;5119299;28;19937;-86
2022/05/09 08:14:36;;;;;;;2.28;1.83;;;28.20;1.00;;;;;;5115189;28;20045;-82
2022/05/09 08:17:03;;;;;;;4.18;1.98;;;27.80;1.00;;;;;;5115241;28;20194;-82
2022/05/09 08:19:31;;;;;;;2.90;2.03;;;27.60;1.00;;;;;;5115307;28;20643;-84
2022/05/09 08:22:01;;;;;;;3.95;1.90;;;27.60;1.00;;;;;;5117865;28;20624;-85
2022/05/09 08:24:28;;;;;;;10.55;2.75;;;28.00;1.00;;;;;;5113031;28;20187;-86
2022/05/09 08:26:57;;;;;;;7.78;1.80;;;28.30;1.00;;;;;;5115443;28;20275;-83
2022/05/09 08:29:24;;;;;;;5.60;2.00;;;28.30;1.00;;;;;;5112398;28;20283;-84
2022/05/09 08:31:51;;;;;;;3.88;2.03;;;28.50;1.00;;;;;;5118368;28;20213;-84
2022/05/09 08:34:18;;;;;;;3.28;2.00;;;28.60;1.00;;;;;;5120971;28;20191;-83
2022/05/09 08:36:48;;;;;;;12.23;2.22;;;28.90;1.00;;;;;;5120520;28;20194;-88
2022/05/09 08:39:16;;;;;;;3.92;1.85;;;29.30;1.00;;;;;;5112834;28;20218;-84
2022/05/09 08:41:55;;;;;;;4.47;2.33;;;29.40;1.00;;;;;;5115839;28;20281;-82
2022/05/09 08:44:41;;;;;;;3.63;2.30;;;29.30;1.00;;;;;;5112623;28;20186;-83
2022/05/09 08:47:41;;;;;;;4.90;2.20;;;28.90;1.00;;;;;;5113107;28;20179;-83
2022/05/09 08:50:17;;;;;;;2.78;2.03;;;28.60;1.00;;;;;;5092662;28;20183;-82
2022/05/09 08:52:49;;;;;;;3.10;2.08;;;28.40;1.00;;;;;;5095540;28;20564;-86
2022/05/09 08:55:20;;;;;;;3.28;2.10;;;28.40;1.00;;;;;;5098168;28;20566;-85
2022/05/09 08:57:53;;;;;;;2.75;1.95;;;28.50;1.00;;;;;;5099350;28;20202;-84
2022/05/09 09:00:27;;;;;;;4.85;2.92;;;28.80;1.00;;;;;;5092068;28;20203;-84
2022/05/09 09:02:59;;;;;;;3.10;1.90;;;29.10;1.00;;;;;;5099209;28;20200;-82
2022/05/09 09:05:29;;;;;;;3.15;2.10;;;29.40;1.00;;;;;;5092973;28;20218;-84
2022/05/09 09:08:07;;;;;;;3.15;1.90;;;29.40;1.00;;;;;;5096551;28;20622;-84
2022/05/09 09:10:43;;;;;;;3.47;1.88;;;29.90;1.00;;;;;;5112511;28;20201;-83
2022/05/09 09:13:25;;;;;;;2.53;1.95;;;30.40;1.00;;;;;;5114225;28;20182;-85
2022/05/09 09:16:11;;;;;;;3.67;2.05;;;31.10;1.00;;;;;;5116954;28;20190;-87
2022/05/09 09:18:50;;;;;;;4.30;2.13;;;31.20;1.00;;;;;;5119184;28;20187;-82
2022/05/09 09:21:23;;;;;;;5.63;4.75;;;30.90;1.00;;;;;;5112523;28;20048;-83
2022/05/09 09:24:07;;;;;;;;;;;29.10;1.00;;;;;;5113272;28;20126;-85
2022/05/09 09:26:41;;;;;;;5.25;2.05;;;27.30;1.00;;;;;;5114392;28;20268;-85
2022/05/09 09:29:13;;;;;;;3.30;2.10;;;26.20;1.00;;;;;;5111666;28;20167;-86
2022/05/09 09:31:47;;;;;;;5.63;2.22;;;25.40;1.00;;;;;;5115737;28;20199;-83
2022/05/09 09:34:24;;;;;;;6.50;3.83;;;25.20;1.00;;;;;;5114614;28;20175;-86
2022/05/09 09:36:57;;;;;;;5.95;2.70;;;24.60;1.00;;;;;;5112202;28;20736;-84
2022/05/09 09:39:26;;;;;;;3.60;2.35;;;23.50;1.00;;;;;;5113876;28;20605;-85
2022/05/09 09:41:55;;;;;;;3.55;2.10;;;22.60;1.00;;;;;;5112579;28;20236;-84
2022/05/09 09:44:23;;;;;;;3.25;2.30;;;22.40;1.00;;;;;;5115876;28;20199;-84
2022/05/09 09:47:05;;;;;;;3.97;2.10;;;22.40;1.00;;;;;;5112478;28;20289;-84
2022/05/09 09:49:33;;;;;;;3.75;2.20;;;22.40;1.00;;;;;;5111682;28;20270;-82
2022/05/09 09:52:00;;;;;;;4.40;2.20;;;22.10;1.00;;;;;;5112311;28;20313;-87
2022/05/09 09:54:30;;;;;;;3.90;2.10;;;21.80;1.00;;;;;;5116138;28;20600;-83
2022/05/09 09:57:07;;;;;;;4.68;2.50;;;21.60;1.00;;;;;;5119873;28;20659;-81
2022/05/09 09:59:35;;;;;;;3.67;2.17;;;21.40;1.00;;;;;;5115877;28;20175;-85
2022/05/09 10:02:07;;;;;;;2.80;2.25;;;21.40;1.00;;;;;;5115561;28;20285;-84
2022/05/09 10:04:34;;;;;;;4.93;2.47;;;21.30;1.00;;;;;;5116120;28;20630;-82
2022/05/09 10:07:04;;;;;;;5.30;2.28;;;21.30;1.00;;;;;;5115805;28;20205;-83
2022/05/09 10:09:42;;;;;;;4.40;2.20;;;21.50;1.00;;;;;;5115306;28;20186;-85
2022/05/09 10:12:22;;;;;;;5.30;1.98;;;21.70;1.00;;;;;;5122027;28;20206;-82
2022/05/09 10:14:51;;;;;;;3.35;1.88;;;22.20;1.00;;;;;;5116623;28;20274;-83
2022/05/09 10:17:27;;;;;;;;;;;22.40;1.00;;;;;;5115621;28;20191;-81
2022/05/09 10:19:55;;;;;;;1.98;1.70;;;22.50;1.00;;;;;;5116563;28;20480;-82
2022/05/09 10:25:15;;;;;;;3.78;1.98;;;22.40;1.00;;;;;;5116672;28;20210;-88
2022/05/09 10:27:42;;;;;;;6.32;4.10;;;22.30;1.00;;;;;;5117787;28;20711;-85
2022/05/09 10:30:30;;;;;;;3.20;1.60;;;22.30;1.00;;;;;;5117165;28;20199;-83
2022/05/09 10:33:04;;;;;;;5.22;1.80;;;22.40;1.00;;;;;;5115901;28;20232;-86
2022/05/09 10:35:37;;;;;;;3.00;1.52;;;22.50;1.00;;;;;;5119665;28;20179;-84
2022/05/09 10:38:11;;;;;;;3.65;1.80;;;22.60;1.00;;;;;;5122363;28;20207;-80
2022/05/09 10:40:42;;;;;;;3.90;1.85;;;22.40;1.00;;;;;;5124355;28;20606;-82
2022/05/09 10:43:13;;;;;;;3.65;1.80;;;22.30;1.00;;;;;;5123472;28;20247;-86
2022/05/09 10:45:48;;;;;;;2.38;1.70;;;22.10;1.00;;;;;;5129264;28;20202;-83
2022/05/09 10:48:29;;;;;;;3.40;1.85;;;22.00;1.00;;;;;;5129298;28;20163;-84
2022/05/09 10:51:11;;;;;;;4.47;1.70;;;21.80;1.00;;;;;;5122350;28;20167;-83
2022/05/09 10:53:44;;;;;;;4.75;2.05;;;21.70;1.00;;;;;;5114639;28;20270;-82
2022/05/09 10:56:19;;;;;;;3.38;1.88;;;21.80;1.00;;;;;;5124943;28;20198;-84
2022/05/09 10:58:53;;;;;;;11.43;2.78;;;21.70;1.00;;;;;;5136616;28;20191;-82
2022/05/09 11:01:25;;;;;;;5.10;2.00;;;21.50;1.00;;;;;;5137009;28;20214;-82
2022/05/09 11:03:57;;;;;;;3.60;2.00;;;21.30;1.00;;;;;;5137500;28;20194;-86
2022/05/09 11:06:33;;;;;;;3.05;2.10;;;21.10;1.00;;;;;;5136920;28;20195;-85
2022/05/09 11:09:19;;;;;;;3.50;2.30;;;21.10;1.00;;;;;;5137808;28;20171;-85
2022/05/09 11:11:59;;;;;;;3.13;1.90;;;21.20;1.00;;;;;;5119820;28;20182;-84
2022/05/09 11:14:34;;;;;;;3.05;1.60;;;21.10;1.00;;;;;;5138038;28;20218;-84
2022/05/09 11:17:18;;;;;;;2.80;1.80;;;21.00;1.00;;;;;;5136925;28;20263;-86
2022/05/09 11:20:16;;;;;;;4.35;1.90;;;21.00;1.00;;;;;;5137690;28;20182;-85
2022/05/09 11:22:53;;;;;;;2.63;1.52;;;21.00;1.00;;;;;;5137317;28;20221;-85
2022/05/09 11:25:33;;;;;;;2.80;1.70;;;20.90;1.00;;;;;;5133217;28;20194;-81
2022/05/09 11:28:15;;;;;;;2.60;1.67;;;21.00;1.00;;;;;;5116527;28;20182;-85
2022/05/09 11:30:46;;;;;;;2.78;1.90;;;21.10;1.00;;;;;;5119015;28;20183;-83
2022/05/09 11:33:36;;;;;;;3.65;1.60;;;21.10;1.00;;;;;;5122504;28;20628;-84
2022/05/09 11:36:17;;;;;;;4.82;1.92;;;21.10;1.00;;;;;;5125450;28;20647;-86
2022/05/09 11:38:56;;;;;;;4.72;1.85;;;21.10;1.00;;;;;;5131251;28;20199;-81
2022/05/09 11:41:38;;;;;;;2.72;1.70;;;21.00;1.00;;;;;;5118346;28;20186;-82
2022/05/09 11:44:18;;;;;;;2.70;2.00;;;21.00;1.00;;;;;;5129135;28;20191;-85
2022/05/09 11:47:20;;;;;;;3.53;1.83;;;21.30;1.00;;;;;;5137052;28;20199;-82
2022/05/09 11:50:21;;;;;;;2.17;1.60;;;21.50;1.00;;;;;;5131218;28;20182;-84
2022/05/09 11:52:50;;;;;;;3.13;1.50;;;21.60;1.00;;;;;;5110247;28;20222;-83
2022/05/09 11:55:20;;;;;;;3.00;1.60;;;21.50;1.00;;;;;;5126684;28;20192;-86
2022/05/09 11:57:58;;;;;;;3.45;1.80;;;21.30;1.00;;;;;;5133141;28;20195;-86
2022/05/09 12:00:47;;;;;;;3.22;1.85;;;21.10;1.00;;;;;;5131166;28;20206;-86
2022/05/09 12:03:36;;;;;;;3.72;1.60;;;21.00;1.00;;;;;;5121894;28;20202;-86
2022/05/09 12:06:28;;;;;;;5.90;2.10;;;21.10;1.00;;;;;;5133853;28;20185;-86
2022/05/09 12:08:58;;;;;;;2.00;1.77;;;21.10;1.00;;;;;;5112680;28;20215;-85
2022/05/09 12:11:30;;;;;;;2.35;1.83;;;21.10;1.00;;;;;;5110600;28;20187;-85
2022/05/09 12:14:00;;;;;;;3.95;1.67;;;21.00;1.00;;;;;;5111277;28;20187;-85
2022/05/09 12:17:00;;;;;;;2.72;1.73;;;21.00;1.00;;;;;;5111506;28;20204;-88
2022/05/09 12:19:33;;;;;;;4.25;1.55;;;20.90;1.00;;;;;;5093034;28;20190;-82
2022/05/09 12:22:35;;;;;;;3.65;1.63;;;20.90;1.00;;;;;;5092882;28;20297;-81
2022/05/09 12:25:06;;;;;;;5.70;1.88;;;21.00;1.00;;;;;;5092758;28;20549;-83
2022/05/09 12:27:43;;;;;;;1.85;1.40;;;20.80;1.00;;;;;;5092972;28;20241;-84
2022/05/09 12:30:14;;;;;;;3.40;1.50;;;20.60;1.00;;;;;;5111619;28;20179;-85
2022/05/09 12:32:45;;;;;;;3.17;1.50;;;20.60;1.00;;;;;;5115064;28;20518;-83
2022/05/09 12:35:13;;;;;;;3.25;2.05;;;20.60;1.00;;;;;;5113364;28;20195;-89
2022/05/09 12:37:46;;;;;;;3.53;1.40;;;20.60;1.00;;;;;;5114863;28;20298;-83
2022/05/09 12:40:24;;;;;;;3.47;1.50;;;20.50;1.00;;;;;;5111726;28;20203;-81
2022/05/09 12:42:56;;;;;;;4.45;1.80;;;20.50;1.00;;;;;;5115386;28;20178;-85
2022/05/09 12:45:24;;;;;;;4.93;2.17;;;20.50;1.00;;;;;;5114053;28;20211;-85
2022/05/09 12:47:51;;;;;;;4.32;1.50;;;20.60;1.00;;;;;;5113475;28;20248;-81
2022/05/09 12:50:27;;;;;;;2.38;1.50;;;20.70;1.00;;;;;;5112625;28;20230;-81
2022/05/09 12:52:57;;;;;;;4.50;1.67;;;20.80;1.00;;;;;;5113210;28;20218;-80
2022/05/09 12:55:55;;;;;;;3.40;1.60;;;21.00;1.00;;;;;;5112905;28;20528;-86
2022/05/09 12:58:34;;;;;;;4.93;1.60;;;21.00;1.00;;;;;;5115407;28;20190;-83
2022/05/09 13:01:07;;;;;;;2.10;1.50;;;20.90;1.00;;;;;;5113421;28;20294;-84
2022/05/09 13:03:43;;;;;;;2.78;1.58;;;21.00;1.00;;;;;;5113098;28;20207;-85
2022/05/09 13:06:13;;;;;;;2.22;1.55;;;20.80;1.00;;;;;;5116787;28;20571;-86
2022/05/09 13:08:40;;;;;;;3.28;1.73;;;20.80;1.00;;;;;;5117118;28;20206;-82
2022/05/09 13:11:14;;;;;;;3.00;1.52;;;20.80;1.00;;;;;;5115847;28;20199;-84
2022/05/09 13:13:47;;;;;;;2.67;1.40;;;20.80;1.00;;;;;;5121798;28;20188;-84
2022/05/09 13:16:26;;;;;;;2.55;1.40;;;20.60;1.00;;;;;;5112281;28;20205;-87
2022/05/09 13:18:55;;;;;;;5.03;1.70;;;20.60;1.00;;;;;;5094742;28;20216;-87
2022/05/09 13:21:26;;;;;;;2.53;1.25;;;20.60;1.00;;;;;;5096573;28;20222;-84
2022/05/09 13:23:54;;;;;;;2.08;1.50;;;20.50;1.00;;;;;;5093402;28;20183;-84
2022/05/09 13:26:28;;;;;;;1.95;1.30;;;20.50;1.00;;;;;;5096538;28;20644;-85
2022/05/09 13:28:57;;;;;;;1.95;1.40;;;20.50;1.00;;;;;;5097852;28;20188;-83
2022/05/09 13:31:34;;;;;;;3.60;1.60;;;20.60;1.00;;;;;;5098975;28;20264;-84
2022/05/09 13:34:02;;;;;;;3.75;1.60;;;20.60;1.00;;;;;;5102669;28;20613;-84
2022/05/09 13:36:36;;;;;;;2.03;1.20;;;20.60;1.00;;;;;;5101766;28;20192;-85
2022/05/09 13:39:03;;;;;;;3.53;1.30;;;20.60;1.00;;;;;;5099119;28;20183;-84
2022/05/09 13:41:38;;;;;;;2.72;1.45;;;20.60;1.00;;;;;;5100379;28;20207;-85
2022/05/09 13:44:07;;;;;;;2.50;1.40;;;20.70;1.00;;;;;;5097479;28;20187;-83
2022/05/09 13:46:37;;;;;;;2.22;1.25;;;20.60;1.00;;;;;;5107613;28;20195;-82